LYKA weather

Kraljevo Brege
Kraljevo, Raška, Serbia

Public forecast

Using degrees Celsius for public forecast. Weather courtesy of forecast.io.

Closest aviation weather report (METAR) to Kraljevo Brege

Closest report is Morava Airport, 7.7 nm (14.2 km) NW. Retrieved 2019/12/08 20:30 UTC (14 minutes ago):

LYKV 082030Z 28003KT 0400 FG VV002 05/05 Q1018 NOSIG

Closest aviation forecast (TAF) to Kraljevo Brege

Closest forecast is Morava Airport, 7.7 nm (14.2 km) NW. Retrieved 2019/12/08 18:00 UTC (3 hours ago):

TAF LYKV 081700Z 0818/0918 VRB02KT 0100 FG VV001 TX08/0912Z TN01/0906Z BECMG 0908/0910 3000 BR BKN008 BECMG 0910/0912 6000 NSW